createdAt,value
2023-08-05T00:00:39.612Z,18.46
2023-08-05T00:03:09.776Z,18.44
2023-08-05T00:05:38.951Z,18.39
2023-08-05T00:08:06.713Z,18.36
2023-08-05T00:10:33.805Z,18.36
2023-08-05T00:13:10.093Z,18.34
2023-08-05T00:15:37.146Z,18.33
2023-08-05T00:18:04.546Z,18.34
2023-08-05T00:20:31.991Z,18.34
2023-08-05T00:23:05.306Z,18.33
2023-08-05T00:25:32.226Z,18.33
2023-08-05T00:27:59.243Z,18.33
2023-08-05T00:30:26.202Z,18.32
2023-08-05T00:32:53.372Z,18.33
2023-08-05T00:35:20.313Z,18.29
2023-08-05T00:37:47.279Z,18.30
2023-08-05T00:40:14.270Z,18.28
2023-08-05T00:42:41.234Z,18.26
2023-08-05T00:45:08.671Z,18.26
2023-08-05T00:47:35.737Z,18.20
2023-08-05T00:50:03.208Z,18.17
2023-08-05T00:52:30.780Z,18.15
2023-08-05T00:54:57.910Z,18.15
2023-08-05T00:57:26.142Z,18.12
2023-08-05T00:59:53.098Z,18.11
2023-08-05T01:02:20.027Z,18.12
2023-08-05T01:04:47.172Z,18.13
2023-08-05T01:07:16.653Z,18.12
2023-08-05T01:09:43.741Z,18.08
2023-08-05T01:12:10.788Z,18.05
2023-08-05T01:14:37.772Z,18.02
2023-08-05T01:17:05.101Z,17.99
2023-08-05T01:19:35.085Z,17.98
2023-08-05T01:22:28.031Z,17.94
2023-08-05T01:25:06.992Z,17.89
2023-08-05T01:27:35.397Z,17.87
2023-08-05T01:30:02.507Z,17.86
2023-08-05T01:32:30.400Z,17.85
2023-08-05T01:34:58.941Z,17.81
2023-08-05T01:37:25.973Z,17.81
2023-08-05T01:39:52.869Z,17.81
2023-08-05T01:42:19.838Z,17.79
2023-08-05T01:44:46.788Z,17.81
2023-08-05T01:47:13.752Z,17.81
2023-08-05T01:49:40.787Z,17.79
2023-08-05T01:52:07.806Z,17.80
2023-08-05T01:54:34.894Z,17.76
2023-08-05T01:57:02.008Z,17.75
2023-08-05T01:59:28.969Z,17.77
2023-08-05T02:01:55.896Z,17.75
2023-08-05T02:04:22.850Z,17.73
2023-08-05T02:06:49.946Z,17.72
2023-08-05T02:09:17.202Z,17.71
2023-08-05T02:11:44.142Z,17.69
2023-08-05T02:14:11.183Z,17.68
2023-08-05T02:16:38.242Z,17.68
2023-08-05T02:19:05.442Z,17.69
2023-08-05T02:21:32.479Z,17.64
2023-08-05T02:23:59.861Z,17.68
2023-08-05T02:26:26.834Z,17.67
2023-08-05T02:28:53.815Z,17.64
2023-08-05T02:31:20.868Z,17.61
2023-08-05T02:33:47.873Z,17.57
2023-08-05T02:36:15.192Z,17.55
2023-08-05T02:38:42.178Z,17.57
2023-08-05T02:41:09.944Z,17.56
2023-08-05T02:43:37.214Z,17.56
2023-08-05T02:46:04.286Z,17.54
2023-08-05T02:48:31.786Z,17.58
2023-08-05T02:50:58.772Z,17.57
2023-08-05T02:53:25.815Z,17.55
2023-08-05T02:55:53.212Z,17.52
2023-08-05T02:58:20.811Z,17.54
2023-08-05T03:00:48.393Z,17.57
2023-08-05T03:03:16.922Z,17.54
2023-08-05T03:05:44.599Z,17.51
2023-08-05T03:08:12.251Z,17.49
2023-08-05T03:10:42.022Z,17.51
2023-08-05T03:13:08.991Z,17.50
2023-08-05T03:15:36.135Z,17.49
2023-08-05T03:18:03.361Z,17.48
2023-08-05T03:20:32.657Z,17.48
2023-08-05T03:22:59.651Z,17.48
2023-08-05T03:25:28.268Z,17.46
2023-08-05T03:27:55.332Z,17.45
2023-08-05T03:30:22.250Z,17.49
2023-08-05T03:32:49.712Z,17.51
2023-08-05T03:35:17.126Z,17.52
2023-08-05T03:37:46.334Z,17.52
2023-08-05T03:40:14.682Z,17.53
2023-08-05T03:42:42.268Z,17.52
2023-08-05T03:45:10.575Z,17.52
2023-08-05T03:47:37.791Z,17.49
2023-08-05T03:50:06.650Z,17.48
2023-08-05T03:52:33.572Z,17.44
2023-08-05T03:55:00.608Z,17.40
2023-08-05T03:57:27.740Z,17.39
2023-08-05T03:59:55.014Z,17.36
2023-08-05T04:02:22.400Z,17.35
2023-08-05T04:04:49.355Z,17.30
2023-08-05T04:07:20.202Z,17.31
2023-08-05T04:09:50.025Z,17.30
2023-08-05T04:12:16.995Z,17.30
2023-08-05T04:14:45.261Z,17.29
2023-08-05T04:17:16.259Z,17.28
2023-08-05T04:19:47.932Z,17.28
2023-08-05T04:22:18.018Z,17.30
2023-08-05T04:24:46.711Z,17.28
2023-08-05T04:27:14.061Z,17.26
2023-08-05T04:29:41.127Z,17.25
2023-08-05T04:32:19.464Z,17.21
2023-08-05T04:34:46.614Z,17.21
2023-08-05T04:37:23.703Z,17.17
2023-08-05T04:39:51.066Z,17.16
2023-08-05T04:42:19.233Z,17.16
2023-08-05T04:44:47.046Z,17.14
2023-08-05T04:47:14.572Z,17.12
2023-08-05T04:49:44.042Z,17.11
2023-08-05T04:52:15.462Z,17.12
2023-08-05T04:54:45.333Z,17.11
2023-08-05T04:57:13.799Z,17.08
2023-08-05T04:59:41.453Z,17.08
2023-08-05T05:02:18.804Z,17.08
2023-08-05T05:04:45.722Z,17.09
2023-08-05T05:07:12.620Z,17.05
2023-08-05T05:09:39.560Z,17.05
2023-08-05T05:12:06.790Z,17.04
2023-08-05T05:14:36.923Z,17.04
2023-08-05T05:17:04.033Z,17.02
2023-08-05T05:19:31.086Z,17.02
2023-08-05T05:21:57.999Z,17.01
2023-08-05T05:24:25.088Z,17.00
2023-08-05T05:26:52.437Z,16.98
2023-08-05T05:29:22.272Z,16.96
2023-08-05T05:31:49.188Z,16.96
2023-08-05T05:34:16.269Z,16.95
2023-08-05T05:36:43.290Z,16.90
2023-08-05T05:39:10.898Z,16.92
2023-08-05T05:41:37.938Z,16.95
2023-08-05T05:44:05.668Z,16.91
2023-08-05T05:46:33.886Z,16.94
2023-08-05T05:49:01.097Z,16.96
2023-08-05T05:51:28.210Z,16.97
2023-08-05T05:53:57.130Z,16.97
2023-08-05T05:56:24.061Z,16.95
2023-08-05T05:58:52.483Z,16.97
2023-08-05T06:01:19.654Z,16.98
2023-08-05T06:03:47.269Z,16.98
2023-08-05T06:06:14.403Z,17.00
2023-08-05T06:08:41.339Z,17.03
2023-08-05T06:11:08.821Z,17.04
2023-08-05T06:13:36.698Z,17.03
2023-08-05T06:16:03.814Z,17.03
2023-08-05T06:18:30.744Z,17.04
2023-08-05T06:20:57.784Z,17.06
2023-08-05T06:23:24.757Z,17.04
2023-08-05T06:25:51.888Z,17.02
2023-08-05T06:28:19.013Z,17.02
2023-08-05T06:30:47.365Z,17.01
2023-08-05T06:33:14.950Z,16.98
2023-08-05T06:35:42.137Z,16.99
2023-08-05T06:38:09.119Z,16.98
2023-08-05T06:40:36.030Z,16.93
2023-08-05T06:43:02.985Z,16.90
2023-08-05T06:45:30.667Z,16.89
2023-08-05T06:47:57.857Z,16.82
2023-08-05T06:50:25.242Z,16.78
2023-08-05T06:52:52.301Z,16.80
2023-08-05T06:55:20.520Z,16.78
2023-08-05T06:57:49.844Z,16.75
2023-08-05T07:00:18.261Z,16.72
2023-08-05T07:02:45.315Z,16.72
2023-08-05T07:05:12.479Z,16.71
2023-08-05T07:07:39.601Z,16.75
2023-08-05T07:10:09.495Z,16.80
2023-08-05T07:12:36.670Z,16.83
2023-08-05T07:15:05.362Z,16.78
2023-08-05T07:17:33.142Z,16.74
2023-08-05T07:20:00.765Z,16.71
2023-08-05T07:22:27.812Z,16.66
2023-08-05T07:24:56.266Z,16.62
2023-08-05T07:27:23.410Z,16.57
2023-08-05T07:29:50.473Z,16.55
2023-08-05T07:32:18.339Z,16.53
2023-08-05T07:34:45.273Z,16.52
2023-08-05T07:37:14.828Z,16.52
2023-08-05T07:39:47.282Z,16.54
2023-08-05T07:42:25.730Z,16.54
2023-08-05T07:44:54.409Z,16.53
2023-08-05T07:47:21.372Z,16.52
2023-08-05T07:49:49.762Z,16.49
2023-08-05T07:52:19.604Z,16.48
2023-08-05T07:54:46.727Z,16.49
2023-08-05T07:57:13.844Z,16.47
2023-08-05T07:59:40.843Z,16.51
2023-08-05T08:02:16.342Z,16.51
2023-08-05T08:04:43.733Z,16.52
2023-08-05T08:07:10.684Z,16.48
2023-08-05T08:09:37.736Z,16.46
2023-08-05T08:12:05.007Z,16.50
2023-08-05T08:14:32.065Z,16.45
2023-08-05T08:17:00.540Z,16.52
2023-08-05T08:19:27.534Z,16.50
2023-08-05T08:21:54.579Z,16.54
2023-08-05T08:24:24.186Z,16.56
2023-08-05T08:26:51.483Z,16.56
2023-08-05T08:29:18.654Z,16.48
2023-08-05T08:31:45.672Z,16.48
2023-08-05T08:34:12.663Z,16.49
2023-08-05T08:36:39.665Z,16.46
2023-08-05T08:39:06.698Z,16.41
2023-08-05T08:41:41.406Z,16.35
2023-08-05T08:44:09.979Z,16.32
2023-08-05T08:46:38.510Z,16.35
2023-08-05T08:49:06.125Z,16.37
2023-08-05T08:51:33.984Z,16.34
2023-08-05T08:54:06.538Z,16.30
2023-08-05T08:56:34.601Z,16.30
2023-08-05T08:59:01.599Z,16.31
2023-08-05T09:01:29.465Z,16.30
2023-08-05T09:03:59.442Z,16.33
2023-08-05T09:06:28.278Z,16.32
2023-08-05T09:08:55.275Z,16.29
2023-08-05T09:11:22.251Z,16.26
2023-08-05T09:13:51.611Z,16.28
2023-08-05T09:16:18.676Z,16.22
2023-08-05T09:18:53.563Z,16.24
2023-08-05T09:21:24.440Z,16.23
2023-08-05T09:23:51.898Z,16.26
2023-08-05T09:26:29.730Z,16.26
2023-08-05T09:28:57.761Z,16.22
2023-08-05T09:31:25.437Z,16.23
2023-08-05T09:33:53.306Z,16.16
2023-08-05T09:36:26.828Z,16.14
2023-08-05T09:39:08.327Z,16.14
2023-08-05T09:41:37.090Z,16.11
2023-08-05T09:44:06.686Z,16.04
2023-08-05T09:46:44.769Z,16.01
2023-08-05T09:49:16.522Z,16.04
2023-08-05T09:51:44.299Z,16.04
2023-08-05T09:54:15.154Z,16.07
2023-08-05T09:56:42.517Z,16.11
2023-08-05T09:59:10.369Z,16.14
2023-08-05T10:01:37.945Z,16.12
2023-08-05T10:04:06.229Z,16.17
2023-08-05T10:06:38.531Z,16.20
2023-08-05T10:09:08.527Z,16.20
2023-08-05T10:11:38.666Z,16.24
2023-08-05T10:14:06.602Z,16.26
2023-08-05T10:16:33.941Z,16.26
2023-08-05T10:19:01.073Z,16.32
2023-08-05T10:21:42.481Z,16.31
2023-08-05T10:24:09.770Z,16.39
2023-08-05T10:26:46.390Z,16.36
2023-08-05T10:29:29.661Z,16.39
2023-08-05T10:32:33.365Z,16.47
2023-08-05T10:35:28.533Z,16.47
2023-08-05T10:38:10.681Z,16.44
2023-08-05T10:40:48.471Z,16.44
2023-08-05T10:43:39.550Z,16.41
2023-08-05T10:46:06.544Z,16.43
2023-08-05T10:48:49.014Z,16.41
2023-08-05T10:51:19.550Z,16.45
2023-08-05T10:54:00.452Z,16.49
2023-08-05T10:56:33.160Z,16.45
2023-08-05T10:59:03.639Z,16.40
2023-08-05T11:02:22.925Z,16.43
2023-08-05T11:04:50.714Z,16.46
2023-08-05T11:07:17.944Z,16.49
2023-08-05T11:09:47.273Z,16.50
2023-08-05T11:12:22.547Z,16.53
2023-08-05T11:14:50.099Z,16.56
2023-08-05T11:17:17.106Z,16.57
2023-08-05T11:19:54.232Z,16.61
2023-08-05T11:22:34.367Z,16.63
2023-08-05T11:25:03.045Z,16.69
2023-08-05T11:27:40.747Z,16.73
2023-08-05T11:30:15.121Z,16.77
2023-08-05T11:32:56.944Z,16.84
2023-08-05T11:35:25.288Z,16.88
2023-08-05T11:37:52.190Z,16.96
2023-08-05T11:40:19.368Z,16.96
2023-08-05T11:42:46.530Z,16.99
2023-08-05T11:45:14.733Z,17.03
2023-08-05T11:47:42.559Z,17.10
2023-08-05T11:50:11.802Z,17.15
2023-08-05T11:52:41.154Z,17.15
2023-08-05T11:55:09.932Z,17.17
2023-08-05T11:57:36.919Z,17.26
2023-08-05T12:00:10.610Z,17.31
2023-08-05T12:02:38.604Z,17.33
2023-08-05T12:05:10.558Z,17.33
2023-08-05T12:07:43.272Z,17.39
2023-08-05T12:10:15.214Z,17.47
2023-08-05T12:12:49.926Z,17.51
2023-08-05T12:15:29.285Z,17.54
2023-08-05T12:17:59.034Z,17.57
2023-08-05T12:20:27.989Z,17.56
2023-08-05T12:22:57.743Z,17.64
2023-08-05T12:25:26.203Z,17.69
2023-08-05T12:27:53.632Z,17.72
2023-08-05T12:30:20.774Z,17.75
2023-08-05T12:32:48.076Z,17.79
2023-08-05T12:35:15.934Z,17.83
2023-08-05T12:37:43.837Z,17.83
2023-08-05T12:40:11.907Z,17.87
2023-08-05T12:42:39.660Z,17.89
2023-08-05T12:45:10.405Z,17.96
2023-08-05T12:47:40.874Z,17.99
2023-08-05T12:50:09.209Z,18.01
2023-08-05T12:52:36.525Z,18.03
2023-08-05T12:55:03.836Z,18.05
2023-08-05T12:57:33.735Z,18.08
2023-08-05T13:00:01.215Z,18.11
2023-08-05T13:02:29.338Z,18.15
2023-08-05T13:04:57.514Z,18.20
2023-08-05T13:07:24.813Z,18.24
2023-08-05T13:09:51.801Z,18.27
2023-08-05T13:12:26.630Z,18.30
2023-08-05T13:14:53.611Z,18.33
2023-08-05T13:17:20.550Z,18.34
2023-08-05T13:19:47.480Z,18.36
2023-08-05T13:22:17.994Z,18.38
2023-08-05T13:24:45.705Z,18.38
2023-08-05T13:27:12.863Z,18.37
2023-08-05T13:29:39.839Z,18.37
2023-08-05T13:32:20.044Z,18.37
2023-08-05T13:34:47.169Z,18.38
2023-08-05T13:37:14.187Z,18.38
2023-08-05T13:39:41.176Z,18.37
2023-08-05T13:42:21.850Z,18.37
2023-08-05T13:44:48.941Z,18.39
2023-08-05T13:47:15.922Z,18.42
2023-08-05T13:49:42.997Z,18.43
2023-08-05T13:52:14.409Z,18.41
2023-08-05T13:54:41.340Z,18.40
2023-08-05T13:57:08.371Z,18.41
2023-08-05T13:59:35.338Z,18.43
2023-08-05T14:02:02.374Z,18.44
2023-08-05T14:04:30.131Z,18.47
2023-08-05T14:06:57.150Z,18.48
2023-08-05T14:09:24.139Z,18.51
2023-08-05T14:11:51.295Z,18.57
2023-08-05T14:14:18.515Z,18.57
2023-08-05T14:16:45.507Z,18.55
2023-08-05T14:19:12.488Z,18.54
2023-08-05T14:21:39.995Z,18.54
2023-08-05T14:24:06.931Z,18.54
2023-08-05T14:26:33.957Z,18.59
2023-08-05T14:29:00.992Z,18.61
2023-08-05T14:31:27.896Z,18.63
2023-08-05T14:33:54.940Z,18.65
2023-08-05T14:36:22.907Z,18.67
2023-08-05T14:38:50.835Z,18.67
2023-08-05T14:41:18.478Z,18.70
2023-08-05T14:43:45.505Z,18.74
2023-08-05T14:46:12.991Z,18.78
2023-08-05T14:48:40.133Z,18.81
2023-08-05T14:51:07.142Z,18.85
2023-08-05T14:53:34.128Z,18.87
2023-08-05T14:56:02.115Z,18.86
2023-08-05T14:58:29.257Z,18.87
2023-08-05T15:00:56.294Z,18.80
2023-08-05T15:03:23.293Z,18.75
2023-08-05T15:05:55.539Z,18.74
2023-08-05T15:08:25.431Z,18.72
2023-08-05T15:11:01.890Z,18.70
2023-08-05T15:13:29.015Z,18.69
2023-08-05T15:15:56.242Z,18.71
2023-08-05T15:18:23.450Z,18.70
2023-08-05T15:20:50.494Z,18.69
2023-08-05T15:23:29.363Z,18.68
2023-08-05T15:25:57.793Z,18.71
2023-08-05T15:28:24.935Z,18.70
2023-08-05T15:30:51.820Z,18.70
2023-08-05T15:33:19.097Z,18.71
2023-08-05T15:35:46.803Z,18.70
2023-08-05T15:38:13.894Z,18.69
2023-08-05T15:40:41.012Z,18.67
2023-08-05T15:43:08.031Z,18.68
2023-08-05T15:45:35.233Z,18.68
2023-08-05T15:48:02.391Z,18.68
2023-08-05T15:50:29.371Z,18.71
2023-08-05T15:52:56.292Z,18.77
2023-08-05T15:55:23.696Z,18.73
2023-08-05T15:57:50.825Z,18.72
2023-08-05T16:00:17.720Z,18.73
2023-08-05T16:02:44.788Z,18.78
2023-08-05T16:05:11.816Z,18.82
2023-08-05T16:07:39.638Z,18.89
2023-08-05T16:10:07.697Z,18.97
2023-08-05T16:12:34.920Z,18.93
2023-08-05T16:15:01.872Z,18.95
2023-08-05T16:17:28.915Z,18.93
2023-08-05T16:19:56.244Z,18.94
2023-08-05T16:22:23.841Z,18.95
2023-08-05T16:24:51.159Z,19.02
2023-08-05T16:27:18.089Z,19.08
2023-08-05T16:29:44.972Z,19.12
2023-08-05T16:32:27.345Z,19.14
2023-08-05T16:34:54.403Z,19.21
2023-08-05T16:37:21.492Z,19.23
2023-08-05T16:39:48.421Z,19.25
2023-08-05T16:42:21.641Z,19.26
2023-08-05T16:44:48.596Z,19.23
2023-08-05T16:47:15.751Z,19.23
2023-08-05T16:49:42.711Z,19.21
2023-08-05T16:52:24.346Z,19.18
2023-08-05T16:54:51.506Z,19.18
2023-08-05T16:57:18.389Z,19.15
2023-08-05T16:59:45.438Z,19.15
2023-08-05T17:02:15.845Z,19.12
2023-08-05T17:04:42.786Z,19.06
2023-08-05T17:07:09.733Z,19.03
2023-08-05T17:09:36.621Z,18.91
2023-08-05T17:12:03.867Z,18.81
2023-08-05T17:14:30.829Z,18.72
2023-08-05T17:16:58.951Z,18.67
2023-08-05T17:19:25.829Z,18.53
2023-08-05T17:21:53.004Z,18.53
2023-08-05T17:24:20.250Z,18.44
2023-08-05T17:26:47.310Z,18.36
2023-08-05T17:29:14.846Z,18.15
2023-08-05T17:31:42.112Z,18.14
2023-08-05T17:34:09.925Z,18.06
2023-08-05T17:36:36.983Z,17.99
2023-08-05T17:39:04.042Z,17.94
2023-08-05T17:41:30.949Z,17.90
2023-08-05T17:43:58.015Z,17.84
2023-08-05T17:46:25.292Z,17.69
2023-08-05T17:48:52.612Z,17.57
2023-08-05T17:51:19.640Z,17.50
2023-08-05T17:53:46.555Z,17.35
2023-08-05T17:56:13.602Z,17.30
2023-08-05T17:58:40.674Z,17.14
2023-08-05T18:01:07.768Z,17.05
2023-08-05T18:03:34.829Z,17.04
2023-08-05T18:06:11.952Z,16.97
2023-08-05T18:08:47.143Z,16.96
2023-08-05T18:11:15.100Z,16.89
2023-08-05T18:13:45.403Z,16.87
2023-08-05T18:16:12.522Z,16.77
2023-08-05T18:18:39.590Z,16.79
2023-08-05T18:21:06.565Z,16.70
2023-08-05T18:23:33.524Z,16.66
2023-08-05T18:26:02.463Z,16.57
2023-08-05T18:28:30.231Z,16.48
2023-08-05T18:30:57.184Z,16.50
2023-08-05T18:33:24.296Z,16.45
2023-08-05T18:35:51.316Z,16.46
2023-08-05T18:38:18.417Z,16.47
2023-08-05T18:40:45.522Z,16.43
2023-08-05T18:43:12.655Z,16.40
2023-08-05T18:45:39.758Z,16.33
2023-08-05T18:48:07.034Z,16.33
2023-08-05T18:50:34.009Z,16.29
2023-08-05T18:53:01.058Z,16.27
2023-08-05T18:55:27.945Z,16.29
2023-08-05T18:57:54.942Z,16.29
2023-08-05T19:00:21.995Z,16.25
2023-08-05T19:02:50.339Z,16.17
2023-08-05T19:05:18.183Z,16.08
2023-08-05T19:07:45.638Z,16.09
2023-08-05T19:10:13.049Z,16.09
2023-08-05T19:12:40.026Z,16.07
2023-08-05T19:15:07.224Z,16.03
2023-08-05T19:17:37.597Z,16.02
2023-08-05T19:20:05.666Z,16.02
2023-08-05T19:22:32.640Z,15.95
2023-08-05T19:25:00.843Z,15.98
2023-08-05T19:27:34.392Z,15.96
2023-08-05T19:30:08.290Z,15.96
2023-08-05T19:32:36.038Z,15.97
2023-08-05T19:35:06.075Z,16.01
2023-08-05T19:37:33.648Z,15.99
2023-08-05T19:40:00.894Z,16.03
2023-08-05T19:42:28.043Z,16.04
2023-08-05T19:44:54.963Z,16.05
2023-08-05T19:47:22.110Z,16.05
2023-08-05T19:49:49.984Z,16.10
2023-08-05T19:52:16.970Z,16.09
2023-08-05T19:54:44.211Z,16.10
2023-08-05T19:57:11.475Z,16.10
2023-08-05T19:59:38.717Z,16.07
2023-08-05T20:02:15.120Z,16.06
2023-08-05T20:04:42.190Z,16.02
2023-08-05T20:07:09.144Z,15.95
2023-08-05T20:09:36.079Z,15.88
2023-08-05T20:12:09.674Z,15.85
2023-08-05T20:14:38.236Z,15.83
2023-08-05T20:17:05.843Z,15.84
2023-08-05T20:19:32.768Z,15.86
2023-08-05T20:21:59.764Z,15.84
2023-08-05T20:24:26.838Z,15.83
2023-08-05T20:26:53.788Z,15.81
2023-08-05T20:29:21.114Z,15.77
2023-08-05T20:31:48.045Z,15.76
2023-08-05T20:34:15.079Z,15.71
2023-08-05T20:36:41.984Z,15.63
2023-08-05T20:39:10.685Z,15.62
2023-08-05T20:41:37.635Z,15.49
2023-08-05T20:44:04.810Z,15.45
2023-08-05T20:46:31.757Z,15.36
2023-08-05T20:48:58.785Z,15.29
2023-08-05T20:51:27.973Z,15.26
2023-08-05T20:53:56.214Z,15.22
2023-08-05T20:56:23.231Z,15.17
2023-08-05T20:58:50.308Z,15.03
2023-08-05T21:01:17.411Z,15.09
2023-08-05T21:03:44.362Z,15.05
2023-08-05T21:06:11.349Z,15.02
2023-08-05T21:08:38.298Z,15.03
2023-08-05T21:11:10.953Z,15.07
2023-08-05T21:13:39.279Z,15.13
2023-08-05T21:16:07.540Z,15.08
2023-08-05T21:18:35.845Z,15.09
2023-08-05T21:21:03.406Z,15.14
2023-08-05T21:23:30.448Z,15.14
2023-08-05T21:25:57.481Z,15.16
2023-08-05T21:28:24.494Z,15.17
2023-08-05T21:30:58.452Z,15.20
2023-08-05T21:33:25.750Z,15.19
2023-08-05T21:35:53.099Z,15.18
2023-08-05T21:38:20.173Z,15.17
2023-08-05T21:40:48.510Z,15.19
2023-08-05T21:43:16.664Z,15.20
2023-08-05T21:45:50.644Z,15.21
2023-08-05T21:48:18.057Z,15.22
2023-08-05T21:50:45.870Z,15.21
2023-08-05T21:53:13.880Z,15.23
2023-08-05T21:55:42.021Z,15.21
2023-08-05T21:58:10.334Z,15.21
2023-08-05T22:00:38.071Z,15.23
2023-08-05T22:03:06.140Z,15.24
2023-08-05T22:05:33.535Z,15.28
2023-08-05T22:08:00.595Z,15.30
2023-08-05T22:10:27.638Z,15.29
2023-08-05T22:12:54.731Z,15.33
2023-08-05T22:15:21.774Z,15.29
2023-08-05T22:17:49.007Z,15.32
2023-08-05T22:20:16.412Z,15.31
2023-08-05T22:22:43.519Z,15.37
2023-08-05T22:25:10.601Z,15.36
2023-08-05T22:27:37.916Z,15.38
2023-08-05T22:30:07.018Z,15.38
2023-08-05T22:32:36.063Z,15.35
2023-08-05T22:35:03.723Z,15.37
2023-08-05T22:37:30.817Z,15.36
2023-08-05T22:39:58.790Z,15.40
2023-08-05T22:42:25.994Z,15.36
2023-08-05T22:44:56.219Z,15.38
2023-08-05T22:47:23.275Z,15.34
2023-08-05T22:49:50.438Z,15.35
2023-08-05T22:52:17.618Z,15.33
2023-08-05T22:54:44.578Z,15.35
2023-08-05T22:57:11.557Z,15.34
2023-08-05T22:59:38.618Z,15.31
2023-08-05T23:02:18.122Z,15.31
2023-08-05T23:04:45.150Z,15.33
2023-08-05T23:07:12.178Z,15.31
2023-08-05T23:09:39.264Z,15.33
2023-08-05T23:12:06.544Z,15.35
2023-08-05T23:14:33.610Z,15.36
2023-08-05T23:17:00.878Z,15.30
2023-08-05T23:19:27.760Z,15.31
2023-08-05T23:21:54.686Z,15.34
2023-08-05T23:24:21.622Z,15.33
2023-08-05T23:26:48.691Z,15.35
2023-08-05T23:29:15.649Z,15.28
2023-08-05T23:31:42.609Z,15.20
2023-08-05T23:34:09.594Z,15.16
2023-08-05T23:36:36.620Z,15.18
2023-08-05T23:39:03.570Z,15.19
2023-08-05T23:41:30.476Z,15.17
2023-08-05T23:43:57.572Z,15.20
2023-08-05T23:46:24.488Z,15.20
2023-08-05T23:48:51.510Z,15.21
2023-08-05T23:51:18.485Z,15.14
2023-08-05T23:53:45.549Z,15.12
2023-08-05T23:56:12.515Z,15.16
2023-08-05T23:58:39.585Z,15.16
